sensor_id;sensor_type;location;lat;lon;timestamp;pressure;altitude;pressure_sealevel;temperature;humidity
11339;BME280;5724;42.684;23.252;2023-03-13T00:00:56;94552.28;;;0.23;61.60
11339;BME280;5724;42.684;23.252;2023-03-13T00:03:22;94566.69;;;0.32;61.08
11339;BME280;5724;42.684;23.252;2023-03-13T00:05:48;94569.59;;;0.36;61.20
11339;BME280;5724;42.684;23.252;2023-03-13T00:08:13;94569.25;;;0.18;61.37
11339;BME280;5724;42.684;23.252;2023-03-13T00:10:40;94567.84;;;0.26;61.38
11339;BME280;5724;42.684;23.252;2023-03-13T00:13:06;94570.97;;;0.33;61.92
11339;BME280;5724;42.684;23.252;2023-03-13T00:15:32;94573.38;;;0.35;61.01
11339;BME280;5724;42.684;23.252;2023-03-13T00:17:58;94573.06;;;0.36;61.41
11339;BME280;5724;42.684;23.252;2023-03-13T00:20:23;94579.84;;;0.34;61.24
11339;BME280;5724;42.684;23.252;2023-03-13T00:22:49;94570.53;;;0.26;60.45
11339;BME280;5724;42.684;23.252;2023-03-13T00:25:14;94581.41;;;0.16;61.68
11339;BME280;5724;42.684;23.252;2023-03-13T00:27:40;94586.19;;;0.19;61.12
11339;BME280;5724;42.684;23.252;2023-03-13T00:30:06;94593.56;;;0.08;60.87
11339;BME280;5724;42.684;23.252;2023-03-13T00:32:32;94581.63;;;-0.05;60.39
11339;BME280;5724;42.684;23.252;2023-03-13T00:34:57;94582.50;;;-0.09;61.38
11339;BME280;5724;42.684;23.252;2023-03-13T00:37:23;94585.47;;;-0.11;60.84
11339;BME280;5724;42.684;23.252;2023-03-13T00:39:48;94580.38;;;-0.12;60.77
11339;BME280;5724;42.684;23.252;2023-03-13T00:42:13;94576.38;;;-0.15;60.62
11339;BME280;5724;42.684;23.252;2023-03-13T00:44:39;94575.25;;;-0.09;60.93
11339;BME280;5724;42.684;23.252;2023-03-13T00:47:04;94579.66;;;-0.18;61.19
11339;BME280;5724;42.684;23.252;2023-03-13T00:49:31;94577.97;;;-0.14;61.18
11339;BME280;5724;42.684;23.252;2023-03-13T00:51:57;94575.47;;;-0.05;60.96
11339;BME280;5724;42.684;23.252;2023-03-13T00:54:22;94583.84;;;-0.12;61.13
11339;BME280;5724;42.684;23.252;2023-03-13T00:56:48;94578.13;;;-0.29;61.19
11339;BME280;5724;42.684;23.252;2023-03-13T00:59:13;94578.13;;;-0.29;61.52
11339;BME280;5724;42.684;23.252;2023-03-13T01:01:39;94569.75;;;-0.22;61.60
11339;BME280;5724;42.684;23.252;2023-03-13T01:04:09;94575.91;;;-0.22;61.74
11339;BME280;5724;42.684;23.252;2023-03-13T01:06:37;94571.63;;;-0.23;61.03
11339;BME280;5724;42.684;23.252;2023-03-13T01:09:06;94566.16;;;-0.13;61.40
11339;BME280;5724;42.684;23.252;2023-03-13T01:11:34;94563.97;;;-0.11;61.09
11339;BME280;5724;42.684;23.252;2023-03-13T01:14:03;94568.00;;;-0.08;61.84
11339;BME280;5724;42.684;23.252;2023-03-13T01:16:31;94564.16;;;-0.02;61.43
11339;BME280;5724;42.684;23.252;2023-03-13T01:19:06;94564.94;;;-0.02;61.42
11339;BME280;5724;42.684;23.252;2023-03-13T01:21:32;94563.06;;;-0.01;61.83
11339;BME280;5724;42.684;23.252;2023-03-13T01:23:58;94574.84;;;0.03;61.32
11339;BME280;5724;42.684;23.252;2023-03-13T01:26:25;94574.38;;;-0.04;61.86
11339;BME280;5724;42.684;23.252;2023-03-13T01:28:50;94584.53;;;-0.01;62.04
11339;BME280;5724;42.684;23.252;2023-03-13T01:33:47;94580.25;;;-0.02;62.66
11339;BME280;5724;42.684;23.252;2023-03-13T01:36:15;94583.22;;;-0.04;62.23
11339;BME280;5724;42.684;23.252;2023-03-13T01:38:41;94588.69;;;-0.09;61.85
11339;BME280;5724;42.684;23.252;2023-03-13T01:41:09;94583.34;;;-0.14;61.45
11339;BME280;5724;42.684;23.252;2023-03-13T01:43:35;94586.91;;;-0.18;61.65
11339;BME280;5724;42.684;23.252;2023-03-13T01:54:05;94569.63;;;-0.12;61.42
11339;BME280;5724;42.684;23.252;2023-03-13T01:56:36;94592.38;;;-0.05;61.70
11339;BME280;5724;42.684;23.252;2023-03-13T01:59:05;94593.41;;;-0.01;62.20
11339;BME280;5724;42.684;23.252;2023-03-13T02:01:33;94589.00;;;0.09;65.18
11339;BME280;5724;42.684;23.252;2023-03-13T02:03:59;94541.19;;;0.11;72.83
11339;BME280;5724;42.684;23.252;2023-03-13T02:06:26;94578.94;;;0.38;65.68
11339;BME280;5724;42.684;23.252;2023-03-13T02:08:56;94586.31;;;0.33;64.31
11339;BME280;5724;42.684;23.252;2023-03-13T02:11:31;94585.16;;;0.15;63.73
11339;BME280;5724;42.684;23.252;2023-03-13T02:13:59;94598.09;;;0.13;63.78
11339;BME280;5724;42.684;23.252;2023-03-13T02:16:25;94596.91;;;0.00;63.79
11339;BME280;5724;42.684;23.252;2023-03-13T02:18:51;94599.94;;;-0.07;64.77
11339;BME280;5724;42.684;23.252;2023-03-13T02:21:41;94606.84;;;0.23;76.75
11339;BME280;5724;42.684;23.252;2023-03-13T02:24:39;94601.81;;;0.17;70.28
11339;BME280;5724;42.684;23.252;2023-03-13T02:27:02;94605.06;;;0.14;66.62
11339;BME280;5724;42.684;23.252;2023-03-13T02:29:28;94611.03;;;0.11;65.99
11339;BME280;5724;42.684;23.252;2023-03-13T02:31:54;94620.22;;;0.05;63.95
11339;BME280;5724;42.684;23.252;2023-03-13T02:34:22;94622.22;;;-0.06;63.61
11339;BME280;5724;42.684;23.252;2023-03-13T02:36:50;94627.63;;;-0.11;64.55
11339;BME280;5724;42.684;23.252;2023-03-13T02:39:19;94627.91;;;-0.13;65.16
11339;BME280;5724;42.684;23.252;2023-03-13T02:41:47;94637.94;;;-0.18;66.65
11339;BME280;5724;42.684;23.252;2023-03-13T02:44:13;94644.94;;;-0.22;66.22
11339;BME280;5724;42.684;23.252;2023-03-13T02:46:47;94627.03;;;-0.32;66.65
11339;BME280;5724;42.684;23.252;2023-03-13T02:49:28;94654.16;;;-0.34;67.56
11339;BME280;5724;42.684;23.252;2023-03-13T02:51:56;94651.28;;;-0.42;67.20
11339;BME280;5724;42.684;23.252;2023-03-13T02:54:34;94651.34;;;-0.47;68.10
11339;BME280;5724;42.684;23.252;2023-03-13T02:57:02;94649.78;;;-0.53;68.17
11339;BME280;5724;42.684;23.252;2023-03-13T02:59:28;94654.63;;;-0.55;68.17
11339;BME280;5724;42.684;23.252;2023-03-13T03:01:54;94655.38;;;-0.50;67.76
11339;BME280;5724;42.684;23.252;2023-03-13T03:04:24;94646.09;;;-0.63;68.67
11339;BME280;5724;42.684;23.252;2023-03-13T03:06:51;94650.34;;;-0.56;68.47
11339;BME280;5724;42.684;23.252;2023-03-13T03:09:18;94653.34;;;-0.63;67.82
11339;BME280;5724;42.684;23.252;2023-03-13T03:11:44;94658.16;;;-0.60;68.01
11339;BME280;5724;42.684;23.252;2023-03-13T03:14:11;94660.69;;;-0.74;67.90
11339;BME280;5724;42.684;23.252;2023-03-13T03:16:37;94647.38;;;-0.89;68.48
11339;BME280;5724;42.684;23.252;2023-03-13T03:19:03;94677.16;;;-0.91;69.71
11339;BME280;5724;42.684;23.252;2023-03-13T03:21:29;94683.44;;;-1.10;71.31
11339;BME280;5724;42.684;23.252;2023-03-13T03:23:54;94682.53;;;-1.35;72.94
11339;BME280;5724;42.684;23.252;2023-03-13T03:26:20;94695.59;;;-1.23;72.27
11339;BME280;5724;42.684;23.252;2023-03-13T03:28:46;94694.22;;;-1.21;71.71
11339;BME280;5724;42.684;23.252;2023-03-13T03:31:13;94688.56;;;-1.14;71.61
11339;BME280;5724;42.684;23.252;2023-03-13T03:33:39;94673.63;;;-1.30;72.34
11339;BME280;5724;42.684;23.252;2023-03-13T03:36:08;94691.78;;;-1.12;71.69
11339;BME280;5724;42.684;23.252;2023-03-13T03:38:34;94695.00;;;-1.15;71.58
11339;BME280;5724;42.684;23.252;2023-03-13T03:41:00;94703.28;;;-1.11;72.04
11339;BME280;5724;42.684;23.252;2023-03-13T03:43:26;94715.13;;;-1.18;72.34
11339;BME280;5724;42.684;23.252;2023-03-13T03:45:51;94723.19;;;-1.23;73.08
11339;BME280;5724;42.684;23.252;2023-03-13T03:48:17;94721.59;;;-1.24;73.09
11339;BME280;5724;42.684;23.252;2023-03-13T03:50:43;94729.56;;;-1.08;72.60
11339;BME280;5724;42.684;23.252;2023-03-13T03:53:08;94727.44;;;-1.17;72.14
11339;BME280;5724;42.684;23.252;2023-03-13T03:55:53;94728.56;;;-1.28;71.88
11339;BME280;5724;42.684;23.252;2023-03-13T03:58:19;94726.44;;;-1.31;72.40
11339;BME280;5724;42.684;23.252;2023-03-13T04:00:46;94732.09;;;-1.32;73.00
11339;BME280;5724;42.684;23.252;2023-03-13T04:03:12;94728.06;;;-1.30;72.74
11339;BME280;5724;42.684;23.252;2023-03-13T04:05:38;94742.53;;;-1.36;72.95
11339;BME280;5724;42.684;23.252;2023-03-13T04:08:04;94742.28;;;-1.34;72.98
11339;BME280;5724;42.684;23.252;2023-03-13T04:10:29;94745.53;;;-1.42;73.18
11339;BME280;5724;42.684;23.252;2023-03-13T04:12:55;94748.72;;;-1.46;72.27
11339;BME280;5724;42.684;23.252;2023-03-13T04:15:20;94753.31;;;-1.51;72.55
11339;BME280;5724;42.684;23.252;2023-03-13T04:17:45;94751.22;;;-1.69;73.46
11339;BME280;5724;42.684;23.252;2023-03-13T04:20:11;94756.56;;;-1.64;72.75
11339;BME280;5724;42.684;23.252;2023-03-13T04:22:39;94759.25;;;-1.64;72.56
11339;BME280;5724;42.684;23.252;2023-03-13T04:25:05;94765.72;;;-1.86;72.47
11339;BME280;5724;42.684;23.252;2023-03-13T04:27:31;94763.03;;;-1.86;72.57
11339;BME280;5724;42.684;23.252;2023-03-13T04:29:57;94766.78;;;-1.77;72.62
11339;BME280;5724;42.684;23.252;2023-03-13T04:32:22;94775.09;;;-1.73;72.54
11339;BME280;5724;42.684;23.252;2023-03-13T04:34:48;94775.06;;;-1.68;72.53
11339;BME280;5724;42.684;23.252;2023-03-13T04:37:13;94775.63;;;-1.81;73.96
11339;BME280;5724;42.684;23.252;2023-03-13T04:39:39;94790.59;;;-1.75;74.02
11339;BME280;5724;42.684;23.252;2023-03-13T04:42:04;94796.50;;;-1.78;74.86
11339;BME280;5724;42.684;23.252;2023-03-13T04:44:30;94801.59;;;-1.87;75.17
11339;BME280;5724;42.684;23.252;2023-03-13T04:46:55;94797.31;;;-1.78;75.16
11339;BME280;5724;42.684;23.252;2023-03-13T04:49:21;94806.97;;;-1.71;75.13
11339;BME280;5724;42.684;23.252;2023-03-13T04:51:46;94808.56;;;-1.81;75.98
11339;BME280;5724;42.684;23.252;2023-03-13T04:54:12;94800.78;;;-1.67;75.28
11339;BME280;5724;42.684;23.252;2023-03-13T04:56:38;94805.34;;;-1.67;76.04
11339;BME280;5724;42.684;23.252;2023-03-13T04:59:03;94813.63;;;-1.54;75.63
11339;BME280;5724;42.684;23.252;2023-03-13T05:01:29;94810.94;;;-1.54;75.62
11339;BME280;5724;42.684;23.252;2023-03-13T05:03:55;94814.94;;;-1.46;75.56
11339;BME280;5724;42.684;23.252;2023-03-13T05:06:20;94800.44;;;-1.35;75.72
11339;BME280;5724;42.684;23.252;2023-03-13T05:08:46;94802.63;;;-1.52;76.08
11339;BME280;5724;42.684;23.252;2023-03-13T05:11:12;94796.72;;;-1.49;76.32
11339;BME280;5724;42.684;23.252;2023-03-13T05:13:37;94814.94;;;-1.41;76.54
11339;BME280;5724;42.684;23.252;2023-03-13T05:16:03;94816.22;;;-1.23;75.56
11339;BME280;5724;42.684;23.252;2023-03-13T05:18:29;94819.72;;;-1.23;75.73
11339;BME280;5724;42.684;23.252;2023-03-13T05:20:54;94824.50;;;-1.20;75.34
11339;BME280;5724;42.684;23.252;2023-03-13T05:23:20;94828.28;;;-1.26;75.43
11339;BME280;5724;42.684;23.252;2023-03-13T05:25:45;94832.00;;;-1.11;75.21
11339;BME280;5724;42.684;23.252;2023-03-13T05:28:11;94827.19;;;-1.14;75.73
11339;BME280;5724;42.684;23.252;2023-03-13T05:30:36;94840.53;;;-0.94;74.55
11339;BME280;5724;42.684;23.252;2023-03-13T05:33:02;94835.66;;;-0.87;74.82
11339;BME280;5724;42.684;23.252;2023-03-13T05:35:28;94830.78;;;-0.75;75.01
11339;BME280;5724;42.684;23.252;2023-03-13T05:37:53;94843.63;;;-0.67;74.67
11339;BME280;5724;42.684;23.252;2023-03-13T05:40:19;94851.63;;;-0.62;74.69
11339;BME280;5724;42.684;23.252;2023-03-13T05:42:45;94849.97;;;-0.52;74.69
11339;BME280;5724;42.684;23.252;2023-03-13T05:45:11;94843.69;;;-0.33;74.31
11339;BME280;5724;42.684;23.252;2023-03-13T05:47:37;94848.25;;;-0.28;74.52
11339;BME280;5724;42.684;23.252;2023-03-13T05:50:05;94859.94;;;-0.09;73.29
11339;BME280;5724;42.684;23.252;2023-03-13T05:52:31;94852.09;;;0.00;73.06
11339;BME280;5724;42.684;23.252;2023-03-13T05:54:57;94853.84;;;0.15;72.75
11339;BME280;5724;42.684;23.252;2023-03-13T05:57:23;94854.06;;;0.18;71.51
11339;BME280;5724;42.684;23.252;2023-03-13T05:59:48;94867.16;;;0.30;70.56
11339;BME280;5724;42.684;23.252;2023-03-13T06:02:14;94872.97;;;0.42;70.29
11339;BME280;5724;42.684;23.252;2023-03-13T06:04:39;94874.78;;;0.52;70.19
11339;BME280;5724;42.684;23.252;2023-03-13T06:07:05;94867.81;;;0.75;70.31
11339;BME280;5724;42.684;23.252;2023-03-13T06:09:30;94865.66;;;0.77;69.64
11339;BME280;5724;42.684;23.252;2023-03-13T06:11:56;94872.78;;;0.92;68.93
11339;BME280;5724;42.684;23.252;2023-03-13T06:14:21;94862.44;;;0.75;68.72
11339;BME280;5724;42.684;23.252;2023-03-13T06:16:47;94868.00;;;0.83;68.71
11339;BME280;5724;42.684;23.252;2023-03-13T06:19:12;94872.38;;;1.03;68.41
11339;BME280;5724;42.684;23.252;2023-03-13T06:21:38;94870.66;;;1.12;67.00
11339;BME280;5724;42.684;23.252;2023-03-13T06:24:04;94867.19;;;1.36;67.04
11339;BME280;5724;42.684;23.252;2023-03-13T06:26:29;94864.53;;;1.55;65.98
11339;BME280;5724;42.684;23.252;2023-03-13T06:28:55;94865.09;;;1.70;65.34
11339;BME280;5724;42.684;23.252;2023-03-13T06:31:20;94868.31;;;1.91;63.86
11339;BME280;5724;42.684;23.252;2023-03-13T06:33:46;94852.75;;;1.88;62.58
11339;BME280;5724;42.684;23.252;2023-03-13T06:36:11;94848.81;;;1.81;62.44
11339;BME280;5724;42.684;23.252;2023-03-13T06:38:37;94842.41;;;1.95;62.14
11339;BME280;5724;42.684;23.252;2023-03-13T06:41:03;94851.13;;;2.06;62.24
11339;BME280;5724;42.684;23.252;2023-03-13T06:43:28;94861.69;;;2.03;62.04
11339;BME280;5724;42.684;23.252;2023-03-13T06:45:54;94866.06;;;1.98;61.32
11339;BME280;5724;42.684;23.252;2023-03-13T06:48:19;94864.91;;;1.86;61.30
11339;BME280;5724;42.684;23.252;2023-03-13T06:50:47;94866.78;;;1.66;60.16
11339;BME280;5724;42.684;23.252;2023-03-13T06:53:18;94863.06;;;1.20;60.91
11339;BME280;5724;42.684;23.252;2023-03-13T06:55:44;94857.44;;;0.92;62.49
11339;BME280;5724;42.684;23.252;2023-03-13T06:58:10;94855.16;;;1.04;61.84
11339;BME280;5724;42.684;23.252;2023-03-13T07:00:36;94846.91;;;1.20;61.07
11339;BME280;5724;42.684;23.252;2023-03-13T07:03:04;94852.72;;;1.51;60.47
11339;BME280;5724;42.684;23.252;2023-03-13T07:05:29;94851.91;;;1.50;60.66
11339;BME280;5724;42.684;23.252;2023-03-13T07:07:55;94856.97;;;1.33;60.32
11339;BME280;5724;42.684;23.252;2023-03-13T07:10:21;94859.78;;;1.23;60.79
11339;BME280;5724;42.684;23.252;2023-03-13T07:12:46;94861.38;;;1.48;59.77
11339;BME280;5724;42.684;23.252;2023-03-13T07:15:12;94858.91;;;1.51;60.95
11339;BME280;5724;42.684;23.252;2023-03-13T07:17:37;94853.69;;;1.79;60.58
11339;BME280;5724;42.684;23.252;2023-03-13T07:20:03;94855.44;;;2.07;59.20
11339;BME280;5724;42.684;23.252;2023-03-13T07:22:31;94854.94;;;2.05;59.68
11339;BME280;5724;42.684;23.252;2023-03-13T07:24:56;94850.19;;;1.59;61.14
11339;BME280;5724;42.684;23.252;2023-03-13T07:27:21;94847.75;;;1.15;61.22
11339;BME280;5724;42.684;23.252;2023-03-13T07:29:48;94846.34;;;0.99;62.26
11339;BME280;5724;42.684;23.252;2023-03-13T07:32:14;94847.88;;;1.05;61.97
11339;BME280;5724;42.684;23.252;2023-03-13T07:34:39;94853.84;;;1.02;62.44
11339;BME280;5724;42.684;23.252;2023-03-13T07:37:05;94848.69;;;1.29;61.76
11339;BME280;5724;42.684;23.252;2023-03-13T07:39:30;94852.00;;;1.83;61.22
11339;BME280;5724;42.684;23.252;2023-03-13T07:41:56;94852.41;;;2.27;59.28
11339;BME280;5724;42.684;23.252;2023-03-13T07:44:21;94859.63;;;2.65;58.45
11339;BME280;5724;42.684;23.252;2023-03-13T07:46:47;94842.09;;;2.95;57.80
11339;BME280;5724;42.684;23.252;2023-03-13T07:49:14;94854.81;;;3.08;57.12
11339;BME280;5724;42.684;23.252;2023-03-13T07:51:40;94845.97;;;2.88;57.82
11339;BME280;5724;42.684;23.252;2023-03-13T07:54:05;94843.31;;;3.16;57.02
11339;BME280;5724;42.684;23.252;2023-03-13T07:56:30;94846.22;;;3.33;56.81
11339;BME280;5724;42.684;23.252;2023-03-13T07:58:56;94840.72;;;3.52;55.84
11339;BME280;5724;42.684;23.252;2023-03-13T08:01:24;94838.91;;;3.34;55.41
11339;BME280;5724;42.684;23.252;2023-03-13T08:03:50;94841.69;;;3.56;55.35
11339;BME280;5724;42.684;23.252;2023-03-13T08:06:23;94837.56;;;3.72;54.21
11339;BME280;5724;42.684;23.252;2023-03-13T08:08:50;94833.00;;;3.18;54.62
11339;BME280;5724;42.684;23.252;2023-03-13T08:11:21;94831.53;;;3.12;54.30
11339;BME280;5724;42.684;23.252;2023-03-13T08:13:50;94835.31;;;3.38;53.79
11339;BME280;5724;42.684;23.252;2023-03-13T08:16:19;94835.28;;;3.66;54.45
11339;BME280;5724;42.684;23.252;2023-03-13T08:18:46;94842.22;;;3.94;53.50
11339;BME280;5724;42.684;23.252;2023-03-13T08:21:15;94847.91;;;4.07;52.97
11339;BME280;5724;42.684;23.252;2023-03-13T08:23:41;94844.59;;;4.10;52.73
11339;BME280;5724;42.684;23.252;2023-03-13T08:26:15;94843.81;;;4.31;52.53
11339;BME280;5724;42.684;23.252;2023-03-13T08:28:42;94848.09;;;3.47;53.09
11339;BME280;5724;42.684;23.252;2023-03-13T08:31:12;94852.78;;;3.82;53.02
11339;BME280;5724;42.684;23.252;2023-03-13T08:33:38;94849.75;;;3.84;53.38
11339;BME280;5724;42.684;23.252;2023-03-13T08:38:39;94846.59;;;4.04;54.77
11339;BME280;5724;42.684;23.252;2023-03-13T08:41:20;94841.81;;;3.51;55.13
11339;BME280;5724;42.684;23.252;2023-03-13T08:43:47;94840.72;;;3.52;55.30
11339;BME280;5724;42.684;23.252;2023-03-13T08:46:13;94837.28;;;3.47;55.70
11339;BME280;5724;42.684;23.252;2023-03-13T08:48:39;94841.66;;;3.84;54.18
11339;BME280;5724;42.684;23.252;2023-03-13T08:51:06;94846.13;;;4.24;53.80
11339;BME280;5724;42.684;23.252;2023-03-13T08:53:32;94845.06;;;4.48;53.71
11339;BME280;5724;42.684;23.252;2023-03-13T08:55:59;94849.22;;;4.76;54.43
11339;BME280;5724;42.684;23.252;2023-03-13T08:58:25;94841.38;;;4.97;53.81
11339;BME280;5724;42.684;23.252;2023-03-13T09:00:50;94838.88;;;5.09;52.44
11339;BME280;5724;42.684;23.252;2023-03-13T09:03:16;94839.72;;;5.18;52.38
11339;BME280;5724;42.684;23.252;2023-03-13T09:05:42;94839.78;;;4.96;52.75
11339;BME280;5724;42.684;23.252;2023-03-13T09:08:08;94845.59;;;5.21;53.19
11339;BME280;5724;42.684;23.252;2023-03-13T09:10:34;94853.78;;;4.98;53.13
11339;BME280;5724;42.684;23.252;2023-03-13T09:13:00;94843.31;;;5.05;52.05
11339;BME280;5724;42.684;23.252;2023-03-13T09:15:26;94833.41;;;5.01;52.25
11339;BME280;5724;42.684;23.252;2023-03-13T09:17:52;94830.00;;;5.17;51.72
11339;BME280;5724;42.684;23.252;2023-03-13T09:20:17;94834.09;;;5.55;51.60
11339;BME280;5724;42.684;23.252;2023-03-13T09:22:44;94827.63;;;5.82;51.11
11339;BME280;5724;42.684;23.252;2023-03-13T09:25:11;94823.16;;;5.86;50.67
11339;BME280;5724;42.684;23.252;2023-03-13T09:27:36;94834.56;;;6.22;50.15
11339;BME280;5724;42.684;23.252;2023-03-13T09:30:02;94829.94;;;5.49;50.25
11339;BME280;5724;42.684;23.252;2023-03-13T09:32:28;94831.50;;;4.70;52.30
11339;BME280;5724;42.684;23.252;2023-03-13T09:34:53;94837.31;;;4.55;53.22
11339;BME280;5724;42.684;23.252;2023-03-13T09:37:20;94837.84;;;5.28;52.14
11339;BME280;5724;42.684;23.252;2023-03-13T09:39:46;94828.53;;;5.68;51.20
11339;BME280;5724;42.684;23.252;2023-03-13T09:42:23;94829.91;;;6.14;49.42
11339;BME280;5724;42.684;23.252;2023-03-13T09:44:59;94829.44;;;6.03;50.87
11339;BME280;5724;42.684;23.252;2023-03-13T09:47:42;94819.56;;;6.42;50.23
11339;BME280;5724;42.684;23.252;2023-03-13T09:50:31;94818.88;;;6.71;49.63
11339;BME280;5724;42.684;23.252;2023-03-13T09:53:02;94822.06;;;6.56;49.49
11339;BME280;5724;42.684;23.252;2023-03-13T09:55:32;94818.28;;;6.57;49.64
11339;BME280;5724;42.684;23.252;2023-03-13T09:58:24;94820.47;;;6.72;48.48
11339;BME280;5724;42.684;23.252;2023-03-13T10:01:02;94821.59;;;6.71;48.31
11339;BME280;5724;42.684;23.252;2023-03-13T10:06:21;94808.72;;;7.06;47.85
11339;BME280;5724;42.684;23.252;2023-03-13T10:08:48;94803.94;;;7.41;46.85
11339;BME280;5724;42.684;23.252;2023-03-13T10:12:11;94799.53;;;7.28;47.06
11339;BME280;5724;42.684;23.252;2023-03-13T10:14:41;94796.56;;;7.04;47.37
11339;BME280;5724;42.684;23.252;2023-03-13T10:17:35;94788.50;;;6.86;47.29
11339;BME280;5724;42.684;23.252;2023-03-13T10:22:49;94778.19;;;7.68;46.47
11339;BME280;5724;42.684;23.252;2023-03-13T10:25:36;94781.19;;;7.75;46.33
11339;BME280;5724;42.684;23.252;2023-03-13T10:28:11;94777.56;;;8.13;45.09
11339;BME280;5724;42.684;23.252;2023-03-13T10:30:37;94776.09;;;8.16;44.36
11339;BME280;5724;42.684;23.252;2023-03-13T10:35:38;94764.75;;;8.68;43.77
11339;BME280;5724;42.684;23.252;2023-03-13T10:40:36;94743.28;;;8.54;43.33
11339;BME280;5724;42.684;23.252;2023-03-13T10:43:16;94750.69;;;8.66;43.29
11339;BME280;5724;42.684;23.252;2023-03-13T10:45:42;94740.47;;;8.63;43.05
11339;BME280;5724;42.684;23.252;2023-03-13T10:48:13;94718.56;;;8.59;44.19
11339;BME280;5724;42.684;23.252;2023-03-13T10:50:44;94730.41;;;8.75;42.87
11339;BME280;5724;42.684;23.252;2023-03-13T10:55:56;94738.59;;;8.00;44.22
11339;BME280;5724;42.684;23.252;2023-03-13T10:58:32;94734.63;;;7.98;44.07
11339;BME280;5724;42.684;23.252;2023-03-13T11:01:38;94725.88;;;8.46;44.49
11339;BME280;5724;42.684;23.252;2023-03-13T11:04:31;94710.53;;;8.75;44.40
11339;BME280;5724;42.684;23.252;2023-03-13T11:07:11;94721.03;;;9.34;42.60
11339;BME280;5724;42.684;23.252;2023-03-13T11:09:38;94721.13;;;9.50;42.79
11339;BME280;5724;42.684;23.252;2023-03-13T11:12:09;94715.31;;;9.63;41.48
11339;BME280;5724;42.684;23.252;2023-03-13T11:14:36;94708.84;;;9.43;42.75
11339;BME280;5724;42.684;23.252;2023-03-13T11:17:15;94705.00;;;9.44;43.17
11339;BME280;5724;42.684;23.252;2023-03-13T11:22:59;94672.59;;;9.55;40.98
11339;BME280;5724;42.684;23.252;2023-03-13T11:26:33;94702.03;;;10.02;42.95
11339;BME280;5724;42.684;23.252;2023-03-13T11:31:33;94691.59;;;9.52;41.41
11339;BME280;5724;42.684;23.252;2023-03-13T11:36:35;94675.00;;;9.57;41.82
11339;BME280;5724;42.684;23.252;2023-03-13T11:39:40;94675.56;;;9.50;42.04
11339;BME280;5724;42.684;23.252;2023-03-13T11:47:58;94670.16;;;10.46;41.23
11339;BME280;5724;42.684;23.252;2023-03-13T11:53:16;94650.44;;;10.84;40.40
11339;BME280;5724;42.684;23.252;2023-03-13T11:58:39;94643.06;;;11.36;40.43
11339;BME280;5724;42.684;23.252;2023-03-13T12:01:27;94633.44;;;10.91;39.78
11339;BME280;5724;42.684;23.252;2023-03-13T12:03:56;94633.63;;;11.33;39.54
11339;BME280;5724;42.684;23.252;2023-03-13T12:08:54;94624.88;;;11.43;38.55
11339;BME280;5724;42.684;23.252;2023-03-13T12:11:44;94617.56;;;11.32;38.80
11339;BME280;5724;42.684;23.252;2023-03-13T12:14:17;94613.56;;;11.10;39.54
11339;BME280;5724;42.684;23.252;2023-03-13T12:19:22;94599.28;;;10.69;39.15
11339;BME280;5724;42.684;23.252;2023-03-13T12:21:53;94614.63;;;10.89;39.21
11339;BME280;5724;42.684;23.252;2023-03-13T12:24:37;94610.38;;;10.01;39.30
11339;BME280;5724;42.684;23.252;2023-03-13T12:27:30;94606.56;;;9.90;40.37
11339;BME280;5724;42.684;23.252;2023-03-13T12:32:39;94610.91;;;10.35;39.41
11339;BME280;5724;42.684;23.252;2023-03-13T12:40:45;94600.94;;;10.89;38.44
11339;BME280;5724;42.684;23.252;2023-03-13T12:43:21;94593.38;;;10.99;37.27
11339;BME280;5724;42.684;23.252;2023-03-13T12:57:00;94611.63;;;9.75;40.52
11339;BME280;5724;42.684;23.252;2023-03-13T12:59:35;94598.31;;;9.46;39.42
11339;BME280;5724;42.684;23.252;2023-03-13T13:02:13;94605.41;;;9.63;40.01
11339;BME280;5724;42.684;23.252;2023-03-13T13:04:43;94601.59;;;9.80;39.83
11339;BME280;5724;42.684;23.252;2023-03-13T13:07:36;94601.97;;;10.22;40.37
11339;BME280;5724;42.684;23.252;2023-03-13T13:12:38;94594.25;;;10.87;39.83
11339;BME280;5724;42.684;23.252;2023-03-13T13:15:25;94600.31;;;11.12;37.86
11339;BME280;5724;42.684;23.252;2023-03-13T13:23:19;94593.66;;;10.62;39.21
11339;BME280;5724;42.684;23.252;2023-03-13T13:25:44;94591.19;;;10.73;38.61
11339;BME280;5724;42.684;23.252;2023-03-13T13:28:33;94589.59;;;10.87;38.21
11339;BME280;5724;42.684;23.252;2023-03-13T13:31:00;94589.59;;;10.87;37.85
11339;BME280;5724;42.684;23.252;2023-03-13T13:33:35;94579.69;;;10.99;37.68
11339;BME280;5724;42.684;23.252;2023-03-13T13:38:47;94574.81;;;11.24;37.48
11339;BME280;5724;42.684;23.252;2023-03-13T13:43:46;94580.31;;;11.43;36.78
11339;BME280;5724;42.684;23.252;2023-03-13T13:46:25;94573.25;;;11.61;37.86
11339;BME280;5724;42.684;23.252;2023-03-13T13:51:38;94572.25;;;11.69;37.70
11339;BME280;5724;42.684;23.252;2023-03-13T13:54:30;94582.56;;;11.95;37.02
11339;BME280;5724;42.684;23.252;2023-03-13T13:57:18;94562.09;;;12.09;37.00
11339;BME280;5724;42.684;23.252;2023-03-13T13:59:48;94563.97;;;11.11;37.42
11339;BME280;5724;42.684;23.252;2023-03-13T14:02:19;94569.16;;;10.50;38.38
11339;BME280;5724;42.684;23.252;2023-03-13T14:04:48;94559.88;;;10.23;39.01
11339;BME280;5724;42.684;23.252;2023-03-13T14:07:18;94555.06;;;9.88;39.41
11339;BME280;5724;42.684;23.252;2023-03-13T14:12:32;94562.47;;;10.63;38.03
11339;BME280;5724;42.684;23.252;2023-03-13T14:15:23;94560.31;;;10.88;37.46
11339;BME280;5724;42.684;23.252;2023-03-13T14:20:34;94557.94;;;10.71;38.05
11339;BME280;5724;42.684;23.252;2023-03-13T14:23:06;94561.88;;;11.05;37.94
11339;BME280;5724;42.684;23.252;2023-03-13T14:25:44;94561.66;;;11.29;36.74
11339;BME280;5724;42.684;23.252;2023-03-13T14:30:43;94561.16;;;11.62;37.31
11339;BME280;5724;42.684;23.252;2023-03-13T14:33:09;94555.38;;;11.67;35.52
11339;BME280;5724;42.684;23.252;2023-03-13T14:35:34;94554.75;;;11.55;36.17
11339;BME280;5724;42.684;23.252;2023-03-13T14:38:01;94567.25;;;11.36;36.52
11339;BME280;5724;42.684;23.252;2023-03-13T14:40:31;94560.06;;;11.67;36.58
11339;BME280;5724;42.684;23.252;2023-03-13T14:42:59;94562.22;;;11.58;36.93
11339;BME280;5724;42.684;23.252;2023-03-13T14:45:29;94558.06;;;11.44;37.06
11339;BME280;5724;42.684;23.252;2023-03-13T14:48:21;94547.53;;;11.66;38.01
11339;BME280;5724;42.684;23.252;2023-03-13T14:50:46;94555.88;;;11.89;37.08